sensor_id;sensor_type;location;lat;lon;timestamp;P1;durP1;ratioP1;P2;durP2;ratioP2
22644;SDS011;11489;50.834;6.752;2023-04-06T00:00:39;16.53;;;8.00;;
22644;SDS011;11489;50.834;6.752;2023-04-06T00:03:05;16.53;;;7.50;;
22644;SDS011;11489;50.834;6.752;2023-04-06T00:05:31;16.20;;;7.13;;
22644;SDS011;11489;50.834;6.752;2023-04-06T00:07:57;14.07;;;7.57;;
22644;SDS011;11489;50.834;6.752;2023-04-06T00:10:23;16.10;;;7.60;;
22644;SDS011;11489;50.834;6.752;2023-04-06T00:12:49;13.90;;;7.63;;
22644;SDS011;11489;50.834;6.752;2023-04-06T00:15:15;14.63;;;7.70;;
22644;SDS011;11489;50.834;6.752;2023-04-06T00:17:41;17.83;;;8.00;;
22644;SDS011;11489;50.834;6.752;2023-04-06T00:20:06;15.97;;;7.13;;
22644;SDS011;11489;50.834;6.752;2023-04-06T00:22:33;16.60;;;8.57;;
22644;SDS011;11489;50.834;6.752;2023-04-06T00:24:59;15.10;;;7.80;;
22644;SDS011;11489;50.834;6.752;2023-04-06T00:27:24;17.17;;;7.97;;
22644;SDS011;11489;50.834;6.752;2023-04-06T00:29:50;13.57;;;7.37;;
22644;SDS011;11489;50.834;6.752;2023-04-06T00:32:16;18.63;;;8.30;;
22644;SDS011;11489;50.834;6.752;2023-04-06T00:34:41;14.50;;;7.50;;
22644;SDS011;11489;50.834;6.752;2023-04-06T00:37:07;16.27;;;7.67;;
22644;SDS011;11489;50.834;6.752;2023-04-06T00:39:33;14.83;;;7.80;;
22644;SDS011;11489;50.834;6.752;2023-04-06T00:41:58;15.27;;;7.30;;
22644;SDS011;11489;50.834;6.752;2023-04-06T00:44:25;15.93;;;7.83;;
22644;SDS011;11489;50.834;6.752;2023-04-06T00:46:51;17.70;;;7.90;;
22644;SDS011;11489;50.834;6.752;2023-04-06T00:49:17;19.10;;;7.23;;
22644;SDS011;11489;50.834;6.752;2023-04-06T00:51:43;15.47;;;8.07;;
22644;SDS011;11489;50.834;6.752;2023-04-06T00:54:09;14.23;;;7.07;;
22644;SDS011;11489;50.834;6.752;2023-04-06T00:56:35;16.17;;;7.27;;
22644;SDS011;11489;50.834;6.752;2023-04-06T00:59:01;18.10;;;7.97;;
22644;SDS011;11489;50.834;6.752;2023-04-06T01:01:27;16.73;;;7.93;;
22644;SDS011;11489;50.834;6.752;2023-04-06T01:03:53;17.40;;;8.10;;
22644;SDS011;11489;50.834;6.752;2023-04-06T01:06:20;17.00;;;8.10;;
22644;SDS011;11489;50.834;6.752;2023-04-06T01:08:46;16.17;;;7.50;;
22644;SDS011;11489;50.834;6.752;2023-04-06T01:11:11;15.80;;;7.97;;
22644;SDS011;11489;50.834;6.752;2023-04-06T01:13:37;16.43;;;7.60;;
22644;SDS011;11489;50.834;6.752;2023-04-06T01:16:03;18.03;;;8.13;;
22644;SDS011;11489;50.834;6.752;2023-04-06T01:18:29;17.57;;;8.00;;
22644;SDS011;11489;50.834;6.752;2023-04-06T01:20:55;14.93;;;7.73;;
22644;SDS011;11489;50.834;6.752;2023-04-06T01:23:20;14.43;;;7.70;;
22644;SDS011;11489;50.834;6.752;2023-04-06T01:25:46;16.37;;;7.63;;
22644;SDS011;11489;50.834;6.752;2023-04-06T01:28:12;16.67;;;7.70;;
22644;SDS011;11489;50.834;6.752;2023-04-06T01:30:38;17.80;;;8.20;;
22644;SDS011;11489;50.834;6.752;2023-04-06T01:33:03;15.90;;;7.70;;
22644;SDS011;11489;50.834;6.752;2023-04-06T01:35:29;16.03;;;7.63;;
22644;SDS011;11489;50.834;6.752;2023-04-06T01:37:55;14.70;;;8.03;;
22644;SDS011;11489;50.834;6.752;2023-04-06T01:40:21;14.70;;;7.80;;
22644;SDS011;11489;50.834;6.752;2023-04-06T01:42:47;12.90;;;7.10;;
22644;SDS011;11489;50.834;6.752;2023-04-06T01:45:13;16.07;;;8.13;;
22644;SDS011;11489;50.834;6.752;2023-04-06T01:47:38;17.57;;;7.53;;
22644;SDS011;11489;50.834;6.752;2023-04-06T01:50:04;14.60;;;7.43;;
22644;SDS011;11489;50.834;6.752;2023-04-06T01:52:31;18.70;;;8.30;;
22644;SDS011;11489;50.834;6.752;2023-04-06T01:54:58;17.43;;;7.83;;
22644;SDS011;11489;50.834;6.752;2023-04-06T01:57:23;14.17;;;7.37;;
22644;SDS011;11489;50.834;6.752;2023-04-06T01:59:50;16.10;;;7.70;;
22644;SDS011;11489;50.834;6.752;2023-04-06T02:02:16;18.90;;;7.97;;
22644;SDS011;11489;50.834;6.752;2023-04-06T02:04:42;14.63;;;7.90;;
22644;SDS011;11489;50.834;6.752;2023-04-06T02:07:08;19.03;;;8.60;;
22644;SDS011;11489;50.834;6.752;2023-04-06T02:09:34;17.90;;;7.63;;
22644;SDS011;11489;50.834;6.752;2023-04-06T02:12:00;14.30;;;7.97;;
22644;SDS011;11489;50.834;6.752;2023-04-06T02:14:26;16.13;;;7.70;;
22644;SDS011;11489;50.834;6.752;2023-04-06T02:16:52;19.67;;;9.13;;
22644;SDS011;11489;50.834;6.752;2023-04-06T02:19:18;17.70;;;8.03;;
22644;SDS011;11489;50.834;6.752;2023-04-06T02:21:43;17.17;;;7.70;;
22644;SDS011;11489;50.834;6.752;2023-04-06T02:24:09;15.87;;;7.90;;
22644;SDS011;11489;50.834;6.752;2023-04-06T02:26:35;15.83;;;7.70;;
22644;SDS011;11489;50.834;6.752;2023-04-06T02:29:01;17.97;;;8.73;;
22644;SDS011;11489;50.834;6.752;2023-04-06T02:31:27;16.80;;;7.83;;
22644;SDS011;11489;50.834;6.752;2023-04-06T02:33:53;16.33;;;7.73;;
22644;SDS011;11489;50.834;6.752;2023-04-06T02:36:19;15.30;;;7.73;;
22644;SDS011;11489;50.834;6.752;2023-04-06T02:38:44;13.57;;;6.73;;
22644;SDS011;11489;50.834;6.752;2023-04-06T02:41:10;17.27;;;7.63;;
22644;SDS011;11489;50.834;6.752;2023-04-06T02:43:36;15.93;;;8.20;;
22644;SDS011;11489;50.834;6.752;2023-04-06T02:46:01;15.00;;;7.23;;
22644;SDS011;11489;50.834;6.752;2023-04-06T02:48:27;16.20;;;7.70;;
22644;SDS011;11489;50.834;6.752;2023-04-06T02:50:53;16.43;;;7.43;;
22644;SDS011;11489;50.834;6.752;2023-04-06T02:53:19;14.93;;;7.70;;
22644;SDS011;11489;50.834;6.752;2023-04-06T02:55:45;17.23;;;7.90;;
22644;SDS011;11489;50.834;6.752;2023-04-06T02:58:11;17.37;;;7.60;;
22644;SDS011;11489;50.834;6.752;2023-04-06T03:00:36;17.20;;;7.80;;
22644;SDS011;11489;50.834;6.752;2023-04-06T03:03:02;14.90;;;7.57;;
22644;SDS011;11489;50.834;6.752;2023-04-06T03:05:28;14.20;;;7.70;;
22644;SDS011;11489;50.834;6.752;2023-04-06T03:07:53;13.93;;;7.90;;
22644;SDS011;11489;50.834;6.752;2023-04-06T03:10:19;17.43;;;7.40;;
22644;SDS011;11489;50.834;6.752;2023-04-06T03:12:45;18.10;;;8.27;;
22644;SDS011;11489;50.834;6.752;2023-04-06T03:15:11;20.07;;;8.27;;
22644;SDS011;11489;50.834;6.752;2023-04-06T03:17:36;16.70;;;8.30;;
22644;SDS011;11489;50.834;6.752;2023-04-06T03:20:02;19.27;;;8.40;;
22644;SDS011;11489;50.834;6.752;2023-04-06T03:22:29;16.57;;;8.27;;
22644;SDS011;11489;50.834;6.752;2023-04-06T03:24:54;20.17;;;8.77;;
22644;SDS011;11489;50.834;6.752;2023-04-06T03:27:20;15.67;;;7.97;;
22644;SDS011;11489;50.834;6.752;2023-04-06T03:29:46;16.60;;;8.30;;
22644;SDS011;11489;50.834;6.752;2023-04-06T03:32:11;17.53;;;8.20;;
22644;SDS011;11489;50.834;6.752;2023-04-06T03:34:37;15.43;;;8.10;;
22644;SDS011;11489;50.834;6.752;2023-04-06T03:37:04;17.03;;;8.30;;
22644;SDS011;11489;50.834;6.752;2023-04-06T03:39:29;17.83;;;8.50;;
22644;SDS011;11489;50.834;6.752;2023-04-06T03:41:55;18.73;;;8.80;;
22644;SDS011;11489;50.834;6.752;2023-04-06T03:44:21;18.23;;;8.50;;
22644;SDS011;11489;50.834;6.752;2023-04-06T03:46:47;16.73;;;8.57;;
22644;SDS011;11489;50.834;6.752;2023-04-06T03:49:12;18.00;;;8.03;;
22644;SDS011;11489;50.834;6.752;2023-04-06T03:51:38;19.33;;;9.03;;
22644;SDS011;11489;50.834;6.752;2023-04-06T03:54:04;19.33;;;8.87;;
22644;SDS011;11489;50.834;6.752;2023-04-06T03:56:29;16.97;;;8.13;;
22644;SDS011;11489;50.834;6.752;2023-04-06T03:58:55;17.13;;;8.53;;
22644;SDS011;11489;50.834;6.752;2023-04-06T04:01:21;19.97;;;9.30;;
22644;SDS011;11489;50.834;6.752;2023-04-06T04:03:46;18.23;;;8.27;;
22644;SDS011;11489;50.834;6.752;2023-04-06T04:06:13;19.23;;;8.60;;
22644;SDS011;11489;50.834;6.752;2023-04-06T04:08:39;18.40;;;8.90;;
22644;SDS011;11489;50.834;6.752;2023-04-06T04:11:05;19.23;;;9.10;;
22644;SDS011;11489;50.834;6.752;2023-04-06T04:13:30;17.10;;;8.40;;
22644;SDS011;11489;50.834;6.752;2023-04-06T04:15:56;16.57;;;7.97;;
22644;SDS011;11489;50.834;6.752;2023-04-06T04:18:22;17.17;;;9.07;;
22644;SDS011;11489;50.834;6.752;2023-04-06T04:20:47;17.17;;;8.13;;
22644;SDS011;11489;50.834;6.752;2023-04-06T04:23:13;17.30;;;8.50;;
22644;SDS011;11489;50.834;6.752;2023-04-06T04:25:38;20.27;;;8.50;;
22644;SDS011;11489;50.834;6.752;2023-04-06T04:28:04;18.63;;;8.77;;
22644;SDS011;11489;50.834;6.752;2023-04-06T04:30:30;18.90;;;8.70;;
22644;SDS011;11489;50.834;6.752;2023-04-06T04:32:55;21.73;;;9.50;;
22644;SDS011;11489;50.834;6.752;2023-04-06T04:35:21;18.30;;;8.43;;
22644;SDS011;11489;50.834;6.752;2023-04-06T04:37:47;18.57;;;8.50;;
22644;SDS011;11489;50.834;6.752;2023-04-06T04:40:12;18.63;;;8.80;;
22644;SDS011;11489;50.834;6.752;2023-04-06T04:42:39;19.30;;;9.37;;
22644;SDS011;11489;50.834;6.752;2023-04-06T04:45:05;22.87;;;8.93;;
22644;SDS011;11489;50.834;6.752;2023-04-06T04:47:31;22.20;;;9.47;;
22644;SDS011;11489;50.834;6.752;2023-04-06T04:49:57;20.97;;;8.43;;
22644;SDS011;11489;50.834;6.752;2023-04-06T04:52:22;19.50;;;9.00;;
22644;SDS011;11489;50.834;6.752;2023-04-06T04:54:48;20.90;;;9.63;;
22644;SDS011;11489;50.834;6.752;2023-04-06T04:57:14;19.23;;;9.37;;
22644;SDS011;11489;50.834;6.752;2023-04-06T04:59:39;21.53;;;9.20;;
22644;SDS011;11489;50.834;6.752;2023-04-06T05:02:05;17.90;;;8.23;;
22644;SDS011;11489;50.834;6.752;2023-04-06T05:04:31;20.77;;;9.73;;
22644;SDS011;11489;50.834;6.752;2023-04-06T05:07:03;18.10;;;8.53;;
22644;SDS011;11489;50.834;6.752;2023-04-06T05:09:29;16.07;;;8.00;;
22644;SDS011;11489;50.834;6.752;2023-04-06T05:11:56;17.67;;;8.53;;
22644;SDS011;11489;50.834;6.752;2023-04-06T05:14:23;16.43;;;8.43;;
22644;SDS011;11489;50.834;6.752;2023-04-06T05:16:49;21.93;;;9.30;;
22644;SDS011;11489;50.834;6.752;2023-04-06T05:19:14;19.57;;;9.03;;
22644;SDS011;11489;50.834;6.752;2023-04-06T05:21:40;18.67;;;9.13;;
22644;SDS011;11489;50.834;6.752;2023-04-06T05:24:06;19.40;;;8.47;;
22644;SDS011;11489;50.834;6.752;2023-04-06T05:26:32;16.80;;;8.73;;
22644;SDS011;11489;50.834;6.752;2023-04-06T05:28:58;14.20;;;7.57;;
22644;SDS011;11489;50.834;6.752;2023-04-06T05:31:23;19.10;;;8.40;;
22644;SDS011;11489;50.834;6.752;2023-04-06T05:33:49;20.73;;;8.57;;
22644;SDS011;11489;50.834;6.752;2023-04-06T05:36:15;14.63;;;8.07;;
22644;SDS011;11489;50.834;6.752;2023-04-06T05:38:41;16.00;;;7.60;;
22644;SDS011;11489;50.834;6.752;2023-04-06T05:41:07;20.70;;;7.60;;
22644;SDS011;11489;50.834;6.752;2023-04-06T05:43:32;17.27;;;8.03;;
22644;SDS011;11489;50.834;6.752;2023-04-06T05:45:58;17.13;;;7.80;;
22644;SDS011;11489;50.834;6.752;2023-04-06T05:48:24;17.00;;;8.17;;
22644;SDS011;11489;50.834;6.752;2023-04-06T05:50:50;16.87;;;7.23;;
22644;SDS011;11489;50.834;6.752;2023-04-06T05:53:16;16.00;;;7.73;;
22644;SDS011;11489;50.834;6.752;2023-04-06T05:55:42;14.57;;;7.70;;
22644;SDS011;11489;50.834;6.752;2023-04-06T05:58:07;15.27;;;7.33;;
22644;SDS011;11489;50.834;6.752;2023-04-06T06:00:34;15.80;;;7.53;;
22644;SDS011;11489;50.834;6.752;2023-04-06T06:02:59;14.03;;;8.00;;
22644;SDS011;11489;50.834;6.752;2023-04-06T06:05:25;14.83;;;8.00;;
22644;SDS011;11489;50.834;6.752;2023-04-06T06:07:51;17.23;;;7.90;;
22644;SDS011;11489;50.834;6.752;2023-04-06T06:10:17;16.83;;;7.93;;
22644;SDS011;11489;50.834;6.752;2023-04-06T06:12:42;16.37;;;8.60;;
22644;SDS011;11489;50.834;6.752;2023-04-06T06:15:08;18.37;;;8.37;;
22644;SDS011;11489;50.834;6.752;2023-04-06T06:17:34;17.93;;;8.67;;
22644;SDS011;11489;50.834;6.752;2023-04-06T06:20:00;18.80;;;9.40;;
22644;SDS011;11489;50.834;6.752;2023-04-06T06:22:26;17.23;;;9.23;;
22644;SDS011;11489;50.834;6.752;2023-04-06T06:24:51;18.33;;;8.63;;
22644;SDS011;11489;50.834;6.752;2023-04-06T06:27:17;17.77;;;8.47;;
22644;SDS011;11489;50.834;6.752;2023-04-06T06:29:43;23.03;;;9.30;;
22644;SDS011;11489;50.834;6.752;2023-04-06T06:32:08;15.67;;;9.07;;
22644;SDS011;11489;50.834;6.752;2023-04-06T06:34:35;16.07;;;8.80;;
22644;SDS011;11489;50.834;6.752;2023-04-06T06:37:01;16.20;;;9.30;;
22644;SDS011;11489;50.834;6.752;2023-04-06T06:39:27;13.70;;;8.50;;
22644;SDS011;11489;50.834;6.752;2023-04-06T06:41:53;15.67;;;9.40;;
22644;SDS011;11489;50.834;6.752;2023-04-06T06:44:20;15.30;;;8.20;;
22644;SDS011;11489;50.834;6.752;2023-04-06T06:46:46;16.50;;;9.07;;
22644;SDS011;11489;50.834;6.752;2023-04-06T06:49:12;17.83;;;9.32;;
22644;SDS011;11489;50.834;6.752;2023-04-06T06:51:39;15.60;;;9.18;;
22644;SDS011;11489;50.834;6.752;2023-04-06T06:54:05;17.42;;;9.40;;
22644;SDS011;11489;50.834;6.752;2023-04-06T06:56:31;15.65;;;9.40;;
22644;SDS011;11489;50.834;6.752;2023-04-06T06:58:57;17.65;;;9.52;;
22644;SDS011;11489;50.834;6.752;2023-04-06T07:01:23;17.35;;;9.10;;
22644;SDS011;11489;50.834;6.752;2023-04-06T07:03:48;17.88;;;9.98;;
22644;SDS011;11489;50.834;6.752;2023-04-06T07:06:14;17.52;;;9.13;;
22644;SDS011;11489;50.834;6.752;2023-04-06T07:08:40;18.25;;;9.65;;
22644;SDS011;11489;50.834;6.752;2023-04-06T07:11:05;16.80;;;9.65;;
22644;SDS011;11489;50.834;6.752;2023-04-06T07:13:31;19.17;;;10.50;;
22644;SDS011;11489;50.834;6.752;2023-04-06T07:15:57;19.80;;;10.13;;
22644;SDS011;11489;50.834;6.752;2023-04-06T07:18:22;16.10;;;9.18;;
22644;SDS011;11489;50.834;6.752;2023-04-06T07:20:48;19.00;;;10.80;;
22644;SDS011;11489;50.834;6.752;2023-04-06T07:23:14;17.90;;;10.07;;
22644;SDS011;11489;50.834;6.752;2023-04-06T07:25:40;19.95;;;10.07;;
22644;SDS011;11489;50.834;6.752;2023-04-06T07:28:06;17.70;;;10.40;;
22644;SDS011;11489;50.834;6.752;2023-04-06T07:30:31;14.82;;;9.18;;
22644;SDS011;11489;50.834;6.752;2023-04-06T07:32:57;18.10;;;9.57;;
22644;SDS011;11489;50.834;6.752;2023-04-06T07:35:24;15.85;;;9.40;;
22644;SDS011;11489;50.834;6.752;2023-04-06T07:37:52;17.90;;;10.32;;
22644;SDS011;11489;50.834;6.752;2023-04-06T07:40:18;20.27;;;9.68;;
22644;SDS011;11489;50.834;6.752;2023-04-06T07:42:44;15.73;;;9.75;;
22644;SDS011;11489;50.834;6.752;2023-04-06T07:45:11;19.45;;;10.00;;
22644;SDS011;11489;50.834;6.752;2023-04-06T07:47:37;20.25;;;10.70;;
22644;SDS011;11489;50.834;6.752;2023-04-06T07:50:03;17.70;;;10.02;;
22644;SDS011;11489;50.834;6.752;2023-04-06T07:52:29;16.42;;;9.85;;
22644;SDS011;11489;50.834;6.752;2023-04-06T07:54:57;17.50;;;9.68;;
22644;SDS011;11489;50.834;6.752;2023-04-06T07:57:23;17.83;;;10.00;;
22644;SDS011;11489;50.834;6.752;2023-04-06T07:59:49;17.75;;;10.40;;
22644;SDS011;11489;50.834;6.752;2023-04-06T08:02:14;15.77;;;9.18;;
22644;SDS011;11489;50.834;6.752;2023-04-06T08:04:40;17.50;;;9.93;;
22644;SDS011;11489;50.834;6.752;2023-04-06T08:07:06;15.07;;;9.55;;
22644;SDS011;11489;50.834;6.752;2023-04-06T08:09:31;13.98;;;9.02;;
22644;SDS011;11489;50.834;6.752;2023-04-06T08:11:57;16.33;;;9.15;;
22644;SDS011;11489;50.834;6.752;2023-04-06T08:14:23;15.60;;;10.18;;
22644;SDS011;11489;50.834;6.752;2023-04-06T08:16:49;18.80;;;9.63;;
22644;SDS011;11489;50.834;6.752;2023-04-06T08:19:15;14.38;;;9.18;;
22644;SDS011;11489;50.834;6.752;2023-04-06T08:21:42;17.33;;;8.95;;
22644;SDS011;11489;50.834;6.752;2023-04-06T08:24:08;17.15;;;9.68;;
22644;SDS011;11489;50.834;6.752;2023-04-06T08:26:34;15.88;;;9.30;;
22644;SDS011;11489;50.834;6.752;2023-04-06T08:29:00;17.08;;;8.80;;
22644;SDS011;11489;50.834;6.752;2023-04-06T08:31:25;15.63;;;9.15;;
22644;SDS011;11489;50.834;6.752;2023-04-06T08:33:51;15.02;;;9.65;;
22644;SDS011;11489;50.834;6.752;2023-04-06T08:36:17;18.23;;;9.20;;
22644;SDS011;11489;50.834;6.752;2023-04-06T08:38:47;14.10;;;8.73;;
22644;SDS011;11489;50.834;6.752;2023-04-06T08:41:14;17.40;;;9.27;;
22644;SDS011;11489;50.834;6.752;2023-04-06T08:43:43;15.55;;;9.10;;
22644;SDS011;11489;50.834;6.752;2023-04-06T08:46:12;17.00;;;9.43;;
22644;SDS011;11489;50.834;6.752;2023-04-06T08:48:38;15.30;;;9.07;;
22644;SDS011;11489;50.834;6.752;2023-04-06T08:51:05;17.30;;;10.00;;
22644;SDS011;11489;50.834;6.752;2023-04-06T08:53:31;13.55;;;9.55;;
22644;SDS011;11489;50.834;6.752;2023-04-06T08:55:56;18.63;;;9.15;;
22644;SDS011;11489;50.834;6.752;2023-04-06T08:58:24;16.15;;;9.38;;
22644;SDS011;11489;50.834;6.752;2023-04-06T09:00:53;18.38;;;9.30;;
22644;SDS011;11489;50.834;6.752;2023-04-06T09:03:19;14.45;;;8.95;;
22644;SDS011;11489;50.834;6.752;2023-04-06T09:05:46;14.27;;;8.90;;
22644;SDS011;11489;50.834;6.752;2023-04-06T09:08:13;15.00;;;9.27;;
22644;SDS011;11489;50.834;6.752;2023-04-06T09:10:42;13.27;;;8.38;;
22644;SDS011;11489;50.834;6.752;2023-04-06T09:13:08;15.02;;;9.07;;
22644;SDS011;11489;50.834;6.752;2023-04-06T09:15:34;14.80;;;9.20;;
22644;SDS011;11489;50.834;6.752;2023-04-06T09:18:01;16.13;;;8.32;;
22644;SDS011;11489;50.834;6.752;2023-04-06T09:20:26;17.02;;;9.73;;
22644;SDS011;11489;50.834;6.752;2023-04-06T09:22:53;13.88;;;8.43;;
22644;SDS011;11489;50.834;6.752;2023-04-06T09:25:21;17.60;;;8.48;;
22644;SDS011;11489;50.834;6.752;2023-04-06T09:28:02;13.52;;;7.93;;
22644;SDS011;11489;50.834;6.752;2023-04-06T09:30:29;15.88;;;8.25;;
22644;SDS011;11489;50.834;6.752;2023-04-06T09:32:55;13.70;;;7.80;;
22644;SDS011;11489;50.834;6.752;2023-04-06T09:35:24;13.30;;;8.40;;
22644;SDS011;11489;50.834;6.752;2023-04-06T09:37:52;14.40;;;7.65;;
22644;SDS011;11489;50.834;6.752;2023-04-06T09:40:18;15.27;;;8.80;;
22644;SDS011;11489;50.834;6.752;2023-04-06T09:42:45;18.75;;;8.35;;
22644;SDS011;11489;50.834;6.752;2023-04-06T09:45:12;15.68;;;8.45;;
22644;SDS011;11489;50.834;6.752;2023-04-06T09:47:39;14.65;;;8.35;;
22644;SDS011;11489;50.834;6.752;2023-04-06T09:50:07;14.85;;;8.23;;
22644;SDS011;11489;50.834;6.752;2023-04-06T09:52:46;15.88;;;8.25;;
22644;SDS011;11489;50.834;6.752;2023-04-06T09:55:35;15.43;;;8.07;;
22644;SDS011;11489;50.834;6.752;2023-04-06T09:58:08;14.60;;;8.10;;
22644;SDS011;11489;50.834;6.752;2023-04-06T10:00:40;17.30;;;7.88;;
22644;SDS011;11489;50.834;6.752;2023-04-06T10:05:55;13.70;;;7.95;;
22644;SDS011;11489;50.834;6.752;2023-04-06T10:08:27;14.93;;;8.30;;
22644;SDS011;11489;50.834;6.752;2023-04-06T10:10:54;13.18;;;8.20;;
22644;SDS011;11489;50.834;6.752;2023-04-06T10:13:20;13.95;;;8.00;;
22644;SDS011;11489;50.834;6.752;2023-04-06T10:15:46;16.98;;;8.13;;
22644;SDS011;11489;50.834;6.752;2023-04-06T10:18:12;18.08;;;8.68;;
22644;SDS011;11489;50.834;6.752;2023-04-06T10:20:49;18.70;;;8.80;;
22644;SDS011;11489;50.834;6.752;2023-04-06T10:23:32;14.07;;;8.27;;
22644;SDS011;11489;50.834;6.752;2023-04-06T10:26:12;14.73;;;8.40;;
22644;SDS011;11489;50.834;6.752;2023-04-06T10:28:45;14.80;;;8.50;;
22644;SDS011;11489;50.834;6.752;2023-04-06T10:31:25;14.07;;;8.25;;
22644;SDS011;11489;50.834;6.752;2023-04-06T10:33:55;14.77;;;8.55;;
22644;SDS011;11489;50.834;6.752;2023-04-06T10:36:22;15.57;;;8.13;;
22644;SDS011;11489;50.834;6.752;2023-04-06T10:39:03;17.65;;;8.52;;
22644;SDS011;11489;50.834;6.752;2023-04-06T10:41:31;15.52;;;8.77;;
22644;SDS011;11489;50.834;6.752;2023-04-06T10:43:59;15.48;;;8.63;;
22644;SDS011;11489;50.834;6.752;2023-04-06T10:46:27;17.90;;;8.65;;
22644;SDS011;11489;50.834;6.752;2023-04-06T10:48:54;16.50;;;8.43;;
22644;SDS011;11489;50.834;6.752;2023-04-06T10:51:24;14.13;;;7.57;;
22644;SDS011;11489;50.834;6.752;2023-04-06T10:53:54;14.50;;;8.32;;
22644;SDS011;11489;50.834;6.752;2023-04-06T10:56:24;15.20;;;7.97;;
22644;SDS011;11489;50.834;6.752;2023-04-06T10:58:52;14.02;;;8.23;;
22644;SDS011;11489;50.834;6.752;2023-04-06T11:01:21;15.57;;;8.00;;
22644;SDS011;11489;50.834;6.752;2023-04-06T11:03:51;21.10;;;8.60;;
22644;SDS011;11489;50.834;6.752;2023-04-06T11:06:25;15.80;;;8.57;;
22644;SDS011;11489;50.834;6.752;2023-04-06T11:08:56;13.43;;;7.72;;
22644;SDS011;11489;50.834;6.752;2023-04-06T11:11:23;16.00;;;8.50;;
22644;SDS011;11489;50.834;6.752;2023-04-06T11:13:52;15.98;;;8.88;;
22644;SDS011;11489;50.834;6.752;2023-04-06T11:16:23;17.20;;;9.07;;
22644;SDS011;11489;50.834;6.752;2023-04-06T11:18:49;17.85;;;9.60;;
22644;SDS011;11489;50.834;6.752;2023-04-06T11:21:15;16.50;;;8.98;;
22644;SDS011;11489;50.834;6.752;2023-04-06T11:23:41;15.60;;;9.25;;
22644;SDS011;11489;50.834;6.752;2023-04-06T11:26:11;13.98;;;8.68;;
22644;SDS011;11489;50.834;6.752;2023-04-06T11:28:38;16.60;;;9.25;;
22644;SDS011;11489;50.834;6.752;2023-04-06T11:31:05;19.25;;;10.25;;
22644;SDS011;11489;50.834;6.752;2023-04-06T11:33:35;15.48;;;9.68;;
22644;SDS011;11489;50.834;6.752;2023-04-06T11:36:02;15.90;;;9.25;;
22644;SDS011;11489;50.834;6.752;2023-04-06T11:38:28;17.63;;;9.77;;
22644;SDS011;11489;50.834;6.752;2023-04-06T11:40:55;16.30;;;9.73;;
22644;SDS011;11489;50.834;6.752;2023-04-06T11:43:29;15.82;;;8.75;;
22644;SDS011;11489;50.834;6.752;2023-04-06T11:46:02;15.70;;;9.07;;
22644;SDS011;11489;50.834;6.752;2023-04-06T11:48:29;15.98;;;9.43;;
22644;SDS011;11489;50.834;6.752;2023-04-06T11:50:58;15.45;;;8.30;;
22644;SDS011;11489;50.834;6.752;2023-04-06T11:53:30;15.00;;;8.27;;
22644;SDS011;11489;50.834;6.752;2023-04-06T11:55:56;14.88;;;8.45;;
22644;SDS011;11489;50.834;6.752;2023-04-06T11:58:21;13.20;;;7.78;;
22644;SDS011;11489;50.834;6.752;2023-04-06T12:00:47;12.13;;;6.97;;
22644;SDS011;11489;50.834;6.752;2023-04-06T12:03:13;13.30;;;8.15;;
22644;SDS011;11489;50.834;6.752;2023-04-06T12:05:39;10.32;;;6.93;;
22644;SDS011;11489;50.834;6.752;2023-04-06T12:08:05;11.85;;;7.38;;
22644;SDS011;11489;50.834;6.752;2023-04-06T12:10:31;14.40;;;7.07;;
22644;SDS011;11489;50.834;6.752;2023-04-06T12:12:57;11.48;;;6.57;;
22644;SDS011;11489;50.834;6.752;2023-04-06T12:15:22;10.43;;;6.20;;
22644;SDS011;11489;50.834;6.752;2023-04-06T12:17:48;8.63;;;5.35;;
22644;SDS011;11489;50.834;6.752;2023-04-06T12:20:15;13.32;;;6.00;;
22644;SDS011;11489;50.834;6.752;2023-04-06T12:22:40;15.10;;;6.00;;
22644;SDS011;11489;50.834;6.752;2023-04-06T12:25:06;13.38;;;6.53;;
22644;SDS011;11489;50.834;6.752;2023-04-06T12:27:32;14.25;;;6.22;;
22644;SDS011;11489;50.834;6.752;2023-04-06T12:29:58;12.95;;;6.55;;
22644;SDS011;11489;50.834;6.752;2023-04-06T12:32:24;10.05;;;6.60;;
22644;SDS011;11489;50.834;6.752;2023-04-06T12:34:52;9.85;;;6.75;;
22644;SDS011;11489;50.834;6.752;2023-04-06T12:37:18;12.18;;;6.97;;
22644;SDS011;11489;50.834;6.752;2023-04-06T12:39:44;11.35;;;7.10;;
22644;SDS011;11489;50.834;6.752;2023-04-06T12:42:10;9.80;;;6.32;;
22644;SDS011;11489;50.834;6.752;2023-04-06T12:44:37;10.27;;;6.78;;
22644;SDS011;11489;50.834;6.752;2023-04-06T12:47:03;7.90;;;5.55;;
22644;SDS011;11489;50.834;6.752;2023-04-06T12:49:30;12.18;;;5.78;;
22644;SDS011;11489;50.834;6.752;2023-04-06T12:51:56;8.88;;;5.95;;
22644;SDS011;11489;50.834;6.752;2023-04-06T12:54:22;10.52;;;6.25;;
22644;SDS011;11489;50.834;6.752;2023-04-06T12:56:48;8.88;;;5.63;;
22644;SDS011;11489;50.834;6.752;2023-04-06T12:59:13;13.85;;;6.07;;
22644;SDS011;11489;50.834;6.752;2023-04-06T13:01:39;10.68;;;5.93;;
22644;SDS011;11489;50.834;6.752;2023-04-06T13:04:05;9.50;;;5.88;;
22644;SDS011;11489;50.834;6.752;2023-04-06T13:06:31;8.18;;;5.53;;
22644;SDS011;11489;50.834;6.752;2023-04-06T13:08:57;7.82;;;5.18;;
22644;SDS011;11489;50.834;6.752;2023-04-06T13:11:22;8.25;;;5.65;;
22644;SDS011;11489;50.834;6.752;2023-04-06T13:13:49;10.70;;;6.15;;
22644;SDS011;11489;50.834;6.752;2023-04-06T13:16:15;10.75;;;6.20;;
22644;SDS011;11489;50.834;6.752;2023-04-06T13:18:41;12.23;;;6.13;;
22644;SDS011;11489;50.834;6.752;2023-04-06T13:21:07;12.23;;;7.00;;
22644;SDS011;11489;50.834;6.752;2023-04-06T13:23:33;12.65;;;6.85;;
22644;SDS011;11489;50.834;6.752;2023-04-06T13:26:03;11.77;;;7.05;;
22644;SDS011;11489;50.834;6.752;2023-04-06T13:28:30;11.35;;;7.10;;
22644;SDS011;11489;50.834;6.752;2023-04-06T13:30:58;10.65;;;6.82;;
22644;SDS011;11489;50.834;6.752;2023-04-06T13:33:25;12.68;;;7.25;;
22644;SDS011;11489;50.834;6.752;2023-04-06T13:35:51;11.93;;;7.18;;
22644;SDS011;11489;50.834;6.752;2023-04-06T13:38:17;14.23;;;7.63;;
22644;SDS011;11489;50.834;6.752;2023-04-06T13:40:43;13.35;;;8.57;;
22644;SDS011;11489;50.834;6.752;2023-04-06T13:43:09;16.52;;;7.70;;
22644;SDS011;11489;50.834;6.752;2023-04-06T13:45:36;16.38;;;8.15;;
22644;SDS011;11489;50.834;6.752;2023-04-06T13:48:02;12.82;;;7.28;;
22644;SDS011;11489;50.834;6.752;2023-04-06T13:50:28;9.23;;;6.22;;
22644;SDS011;11489;50.834;6.752;2023-04-06T13:52:54;12.50;;;6.53;;
22644;SDS011;11489;50.834;6.752;2023-04-06T13:55:20;9.05;;;5.72;;
22644;SDS011;11489;50.834;6.752;2023-04-06T13:57:46;9.57;;;5.85;;
22644;SDS011;11489;50.834;6.752;2023-04-06T14:00:12;8.98;;;5.53;;
22644;SDS011;11489;50.834;6.752;2023-04-06T14:02:39;8.35;;;5.15;;
22644;SDS011;11489;50.834;6.752;2023-04-06T14:05:05;7.18;;;4.50;;
22644;SDS011;11489;50.834;6.752;2023-04-06T14:07:31;8.20;;;4.78;;
22644;SDS011;11489;50.834;6.752;2023-04-06T14:09:57;8.05;;;5.00;;
22644;SDS011;11489;50.834;6.752;2023-04-06T14:12:22;7.30;;;4.72;;
22644;SDS011;11489;50.834;6.752;2023-04-06T14:14:48;9.27;;;4.70;;
22644;SDS011;11489;50.834;6.752;2023-04-06T14:17:14;8.07;;;4.75;;
22644;SDS011;11489;50.834;6.752;2023-04-06T14:19:39;8.98;;;4.70;;
22644;SDS011;11489;50.834;6.752;2023-04-06T14:22:05;7.60;;;4.90;;
22644;SDS011;11489;50.834;6.752;2023-04-06T14:24:31;9.30;;;5.68;;
22644;SDS011;11489;50.834;6.752;2023-04-06T14:26:56;8.30;;;5.47;;
22644;SDS011;11489;50.834;6.752;2023-04-06T14:29:22;10.63;;;5.90;;
22644;SDS011;11489;50.834;6.752;2023-04-06T14:31:48;10.55;;;6.18;;
22644;SDS011;11489;50.834;6.752;2023-04-06T14:34:14;10.07;;;6.43;;